Time;durP1;ratioP1;P1;durP2;ratioP2;P2;SDS_P1;SDS_P2;PMS_P1;PMS_P2;Temp;Humidity;BMP_temperature;BMP_pressure;BME280_temperature;BME280_humidity;BME280_pressure;Samples;Min_cycle;Max_cycle;Signal;HPM_P1;HPM_P2
2022/05/27 00:00:10;;;;;;;15.43;5.78;;;20.20;64.30;;;;;;5021215;28;20035;-58
2022/05/27 00:02:36;;;;;;;14.48;5.38;;;20.20;64.40;;;;;;5022088;28;20041;-58
2022/05/27 00:05:02;;;;;;;14.52;5.97;;;20.20;64.30;;;;;;5025508;28;20455;-58
2022/05/27 00:07:27;;;;;;;10.98;5.10;;;20.20;64.10;;;;;;5024210;28;20168;-58
2022/05/27 00:09:53;;;;;;;11.32;4.90;;;20.20;64.30;;;;;;5025181;28;20053;-58
2022/05/27 00:12:20;;;;;;;12.15;5.10;;;20.20;64.20;;;;;;5026440;28;20156;-59
2022/05/27 00:14:46;;;;;;;11.65;5.15;;;20.20;64.30;;;;;;5025665;28;20034;-58
2022/05/27 00:17:12;;;;;;;9.85;4.88;;;20.20;64.30;;;;;;5021980;28;20040;-59
2022/05/27 00:19:38;;;;;;;11.70;5.20;;;20.20;64.40;;;;;;5032003;28;20033;-58
2022/05/27 00:22:04;;;;;;;11.30;5.00;;;20.20;64.40;;;;;;5034177;28;20017;-58
2022/05/27 00:24:29;;;;;;;12.60;5.70;;;20.10;64.30;;;;;;5040565;28;20042;-58
2022/05/27 00:26:55;;;;;;;12.23;5.30;;;20.10;64.40;;;;;;5034513;28;20033;-59
2022/05/27 00:29:22;;;;;;;10.50;4.88;;;20.10;64.40;;;;;;5034404;28;20017;-58
2022/05/27 00:31:47;;;;;;;11.05;5.32;;;20.10;64.40;;;;;;5033139;28;20041;-58
2022/05/27 00:34:14;;;;;;;12.00;5.10;;;20.10;64.10;;;;;;5034077;28;20583;-58
2022/05/27 00:36:40;;;;;;;13.73;5.50;;;20.10;64.40;;;;;;5038068;28;20104;-58
2022/05/27 00:39:06;;;;;;;11.23;5.35;;;20.10;64.40;;;;;;5037274;28;20708;-58
2022/05/27 00:41:32;;;;;;;12.85;5.28;;;20.10;64.20;;;;;;5034481;28;20029;-58
2022/05/27 00:43:57;;;;;;;12.00;5.55;;;20.10;64.40;;;;;;5032782;28;20027;-58
2022/05/27 00:46:27;;;;;;;11.27;4.93;;;20.10;64.30;;;;;;5040967;28;20052;-58
2022/05/27 00:48:54;;;;;;;11.00;4.85;;;20.10;64.20;;;;;;5042119;28;20116;-58
2022/05/27 00:51:22;;;;;;;9.38;4.95;;;20.10;64.30;;;;;;5039884;28;20034;-58
2022/05/27 00:53:57;;;;;;;11.05;5.15;;;20.10;64.10;;;;;;5049953;28;20061;-58
2022/05/27 00:56:24;;;;;;;9.38;4.95;;;20.10;64.30;;;;;;5045922;28;20557;-60
2022/05/27 00:58:52;;;;;;;9.65;4.45;;;20.00;64.30;;;;;;5037832;28;20103;-58
2022/05/27 01:01:18;;;;;;;12.27;4.95;;;20.00;63.80;;;;;;5062134;28;20020;-60
2022/05/27 01:03:43;;;;;;;12.23;5.25;;;20.10;64.40;;;;;;5038524;28;20036;-60
2022/05/27 01:06:09;;;;;;;12.73;5.32;;;20.10;64.20;;;;;;5066123;28;20159;-60
2022/05/27 01:08:35;;;;;;;10.68;4.90;;;20.00;64.20;;;;;;5031693;28;20056;-60
2022/05/27 01:11:22;;;;;;;11.90;5.28;;;20.00;64.30;;;;;;5050304;28;20033;-60
2022/05/27 01:14:32;;;;;;;10.73;4.82;;;20.00;64.20;;;;;;5035368;28;20020;-60
2022/05/27 01:17:09;;;;;;;10.52;4.70;;;20.00;64.20;;;;;;5036523;28;20512;-60
2022/05/27 01:23:03;;;;;;;10.50;4.88;;;20.00;64.10;;;;;;5033781;28;20040;-60
2022/05/27 01:25:58;;;;;;;10.27;5.00;;;20.00;64.20;;;;;;5032767;28;20029;-60
2022/05/27 01:28:46;;;;;;;11.30;4.88;;;20.00;64.10;;;;;;5039026;28;20022;-60
2022/05/27 01:31:24;;;;;;;11.30;4.70;;;20.00;64.20;;;;;;5060742;28;20033;-60
2022/05/27 01:34:06;;;;;;;8.88;4.07;;;20.00;64.20;;;;;;5034532;28;20426;-59
2022/05/27 01:36:35;;;;;;;10.88;4.85;;;20.00;64.10;;;;;;5029812;28;20584;-60
2022/05/27 01:39:13;;;;;;;9.65;4.47;;;20.00;64.10;;;;;;5037493;28;20041;-60
2022/05/27 01:41:51;;;;;;;9.40;4.50;;;20.00;64.00;;;;;;5038253;28;20040;-60
2022/05/27 01:44:24;;;;;;;12.45;4.95;;;20.00;64.00;;;;;;5065679;28;20018;-60
2022/05/27 01:46:50;;;;;;;9.45;4.30;;;19.90;63.90;;;;;;5046689;28;20545;-60
2022/05/27 01:49:59;;;;;;;9.38;4.60;;;19.90;64.10;;;;;;5064110;28;20029;-58
2022/05/27 01:52:38;;;;;;;9.95;4.18;;;19.90;63.90;;;;;;5029212;28;20048;-59
2022/05/27 01:55:28;;;;;;;8.93;3.95;;;19.90;63.90;;;;;;5065869;28;20014;-60
2022/05/27 01:58:30;;;;;;;9.70;4.15;;;19.90;63.90;;;;;;5040217;28;20036;-60
2022/05/27 02:00:56;;;;;;;7.82;3.92;;;19.90;63.80;;;;;;5001815;28;20088;-60
2022/05/27 02:03:42;;;;;;;9.18;4.38;;;19.90;63.80;;;;;;5003395;28;20045;-59
2022/05/27 02:06:13;;;;;;;9.82;4.60;;;19.90;63.80;;;;;;4986430;28;20062;-60
2022/05/27 02:08:53;;;;;;;8.93;3.95;;;19.90;63.90;;;;;;5011018;28;20117;-59
2022/05/27 02:11:20;;;;;;;8.48;3.97;;;19.90;63.80;;;;;;5017464;28;20042;-60
2022/05/27 02:13:58;;;;;;;8.60;4.00;;;19.90;63.80;;;;;;5020196;28;20034;-60
2022/05/27 02:16:52;;;;;;;8.02;3.92;;;19.90;63.80;;;;;;5004687;28;20034;-60
2022/05/27 02:19:40;;;;;;;10.77;4.10;;;19.90;63.80;;;;;;5004902;28;20070;-60
2022/05/27 02:22:17;;;;;;;9.65;4.28;;;19.90;63.80;;;;;;5002953;28;20049;-60
2022/05/27 02:24:45;;;;;;;10.02;4.30;;;19.80;63.70;;;;;;5020768;28;20038;-60
2022/05/27 02:27:20;;;;;;;9.88;4.25;;;19.90;63.80;;;;;;5018326;28;20025;-60
2022/05/27 02:29:47;;;;;;;8.63;3.95;;;19.90;63.80;;;;;;5012940;28;20041;-59
2022/05/27 02:32:20;;;;;;;7.88;3.88;;;19.80;63.70;;;;;;5000432;28;20026;-60
2022/05/27 02:35:10;;;;;;;11.43;4.05;;;19.80;63.70;;;;;;5003595;28;20506;-60
2022/05/27 02:37:40;;;;;;;10.23;3.95;;;19.80;63.70;;;;;;5033458;28;20470;-59
2022/05/27 02:40:27;;;;;;;8.52;4.10;;;19.80;63.70;;;;;;5034607;28;20056;-60
2022/05/27 02:43:05;;;;;;;9.93;4.10;;;19.80;63.70;;;;;;5038367;28;20029;-60
2022/05/27 02:46:01;;;;;;;9.07;4.07;;;19.80;63.70;;;;;;5037366;28;20037;-59
2022/05/27 02:48:32;;;;;;;9.00;4.07;;;19.80;63.70;;;;;;5040357;28;20052;-60
2022/05/27 02:50:57;;;;;;;10.20;4.38;;;19.80;63.70;;;;;;5069382;28;20405;-60
2022/05/27 02:53:30;;;;;;;8.77;3.70;;;19.80;63.70;;;;;;5034083;28;20014;-60
2022/05/27 02:56:15;;;;;;;7.50;3.78;;;19.80;63.70;;;;;;5034431;28;20021;-60
2022/05/27 02:58:40;;;;;;;;;;;19.80;63.60;;;;;;5040227;28;20025;-60
2022/05/27 03:01:06;;;;;;;8.43;3.70;;;19.80;63.70;;;;;;5032172;28;19924;-60
2022/05/27 03:03:32;;;;;;;8.90;3.75;;;19.80;63.60;;;;;;5040150;28;20036;-60
2022/05/27 03:06:12;;;;;;;9.43;3.88;;;19.80;63.60;;;;;;5037497;28;20118;-60
2022/05/27 03:09:04;;;;;;;8.68;3.70;;;19.80;63.60;;;;;;5033954;28;20026;-60
2022/05/27 03:12:02;;;;;;;8.63;3.95;;;19.80;63.70;;;;;;5041492;28;20463;-60
2022/05/27 03:14:52;;;;;;;9.95;3.72;;;19.80;63.70;;;;;;5036447;28;20028;-60
2022/05/27 03:17:54;;;;;;;8.30;3.58;;;19.80;63.60;;;;;;5065180;28;20082;-59
2022/05/27 03:20:49;;;;;;;9.02;3.72;;;19.80;63.70;;;;;;5037178;28;20036;-60
2022/05/27 03:23:19;;;;;;;8.40;3.75;;;19.80;63.70;;;;;;5035693;28;20032;-60
2022/05/27 03:25:46;;;;;;;8.88;3.95;;;19.80;63.70;;;;;;5042962;28;20393;-60
2022/05/27 03:28:23;;;;;;;8.63;3.65;;;19.70;63.60;;;;;;5038487;28;20037;-60
2022/05/27 03:31:07;;;;;;;8.50;3.50;;;19.70;63.60;;;;;;5065752;28;20156;-60
2022/05/27 03:33:59;;;;;;;10.13;3.72;;;19.70;63.60;;;;;;5043299;28;20035;-60
2022/05/27 03:36:34;;;;;;;8.63;3.70;;;19.70;63.60;;;;;;5037382;28;20416;-59
2022/05/27 03:39:09;;;;;;;8.77;3.38;;;19.70;63.60;;;;;;5004985;28;20765;-60
2022/05/27 03:41:36;;;;;;;8.32;3.45;;;19.70;63.60;;;;;;5025188;28;20042;-60
2022/05/27 03:44:02;;;;;;;8.40;3.53;;;19.70;63.60;;;;;;5005682;28;20045;-60
2022/05/27 03:46:29;;;;;;;9.88;3.95;;;19.70;63.60;;;;;;5038734;28;20021;-60
2022/05/27 03:48:55;;;;;;;7.72;3.35;;;19.70;63.60;;;;;;5043739;28;20028;-60
2022/05/27 03:51:22;;;;;;;8.10;3.50;;;19.70;63.60;;;;;;5041563;28;20044;-59
2022/05/27 03:54:06;;;;;;;8.77;3.92;;;19.70;63.60;;;;;;5039938;28;20524;-60
2022/05/27 03:56:33;;;;;;;6.47;3.20;;;19.70;63.60;;;;;;5038224;28;20118;-60
2022/05/27 03:59:00;;;;;;;7.38;3.55;;;19.70;63.60;;;;;;5038508;28;20025;-60
2022/05/27 04:01:26;;;;;;;8.80;3.85;;;19.70;63.60;;;;;;5037203;28;20112;-60
2022/05/27 04:03:52;;;;;;;7.70;3.30;;;19.70;63.60;;;;;;5038326;28;20025;-60
2022/05/27 04:06:18;;;;;;;7.90;3.63;;;19.70;63.60;;;;;;5030965;28;20522;-59
2022/05/27 04:08:44;;;;;;;8.43;3.40;;;19.60;63.50;;;;;;5040352;28;20087;-60
2022/05/27 04:11:09;;;;;;;7.50;3.40;;;19.60;63.50;;;;;;5037417;28;20055;-60
2022/05/27 04:13:35;;;;;;;7.63;3.78;;;19.60;63.50;;;;;;5036622;28;20029;-60
2022/05/27 04:16:00;;;;;;;8.57;3.72;;;19.60;63.60;;;;;;5034847;28;20036;-59
2022/05/27 04:18:26;;;;;;;9.07;3.35;;;19.60;63.60;;;;;;5032850;28;20030;-60
2022/05/27 04:20:52;;;;;;;7.18;3.28;;;19.60;63.60;;;;;;5033359;28;20029;-60
2022/05/27 04:23:17;;;;;;;7.13;3.33;;;19.60;63.60;;;;;;5035077;28;20022;-60
2022/05/27 04:25:47;;;;;;;6.97;3.30;;;19.60;63.60;;;;;;5035031;28;20036;-60
2022/05/27 04:28:13;;;;;;;9.30;3.53;;;19.60;63.60;;;;;;5034969;28;20505;-60
2022/05/27 04:30:41;;;;;;;7.07;3.35;;;19.60;63.60;;;;;;5034301;28;20079;-60
2022/05/27 04:33:08;;;;;;;7.82;3.05;;;19.60;63.60;;;;;;5033459;28;20271;-60
2022/05/27 04:35:33;;;;;;;7.72;3.45;;;19.60;63.60;;;;;;5033727;28;20050;-60
2022/05/27 04:37:59;;;;;;;7.57;3.65;;;19.60;63.60;;;;;;5038474;28;20017;-60
2022/05/27 04:40:24;;;;;;;7.72;3.55;;;19.60;63.60;;;;;;5037819;28;20460;-60
2022/05/27 04:42:50;;;;;;;7.32;3.38;;;19.60;63.70;;;;;;5035929;28;20059;-60
2022/05/27 04:45:16;;;;;;;7.35;3.33;;;19.60;63.70;;;;;;5037429;28;20144;-60
2022/05/27 04:47:41;;;;;;;8.57;3.25;;;19.60;63.70;;;;;;5038372;28;20092;-60
2022/05/27 04:50:09;;;;;;;8.23;3.13;;;19.60;63.70;;;;;;5037262;28;20082;-61
2022/05/27 04:52:35;;;;;;;7.07;3.20;;;19.60;63.70;;;;;;5031686;28;20068;-60
2022/05/27 04:55:02;;;;;;;7.47;3.30;;;19.60;63.70;;;;;;5040422;28;20112;-60
2022/05/27 04:57:32;;;;;;;8.02;3.30;;;19.60;63.80;;;;;;5036103;28;20037;-59
2022/05/27 04:59:59;;;;;;;8.65;3.40;;;19.60;63.80;;;;;;5068859;28;20032;-59
2022/05/27 05:02:24;;;;;;;7.35;3.08;;;19.60;63.80;;;;;;5034615;28;20025;-60
2022/05/27 05:04:51;;;;;;;6.07;3.17;;;19.60;63.80;;;;;;5029099;28;20033;-59
2022/05/27 05:07:18;;;;;;;7.28;3.20;;;19.60;63.80;;;;;;5034342;28;20111;-59
2022/05/27 05:09:44;;;;;;;8.35;3.50;;;19.60;63.80;;;;;;5037672;28;20387;-60
2022/05/27 05:12:10;;;;;;;6.90;3.00;;;19.60;63.80;;;;;;5035898;28;20048;-60
2022/05/27 05:14:36;;;;;;;7.93;3.05;;;19.60;63.90;;;;;;5034955;28;20312;-60
2022/05/27 05:17:01;;;;;;;6.57;2.80;;;19.60;63.90;;;;;;5033580;28;20055;-60
2022/05/27 05:19:27;;;;;;;6.90;3.33;;;19.50;63.90;;;;;;5034744;28;20477;-60
2022/05/27 05:21:53;;;;;;;7.07;3.25;;;19.50;63.90;;;;;;5030920;28;20025;-60
2022/05/27 05:24:19;;;;;;;8.20;3.10;;;19.50;63.90;;;;;;5032196;28;20034;-60
2022/05/27 05:26:45;;;;;;;6.28;3.13;;;19.60;64.00;;;;;;5034240;28;20029;-60
2022/05/27 05:29:10;;;;;;;7.50;3.22;;;19.50;64.00;;;;;;5032027;28;20040;-60
2022/05/27 05:31:36;;;;;;;7.20;3.08;;;19.50;64.00;;;;;;5033040;28;20045;-60
2022/05/27 05:34:02;;;;;;;8.80;2.90;;;19.50;64.10;;;;;;5035665;28;20021;-60
2022/05/27 05:36:31;;;;;;;8.07;3.08;;;19.50;64.20;;;;;;5029946;28;20056;-60
2022/05/27 05:38:57;;;;;;;6.78;3.08;;;19.50;64.20;;;;;;5030374;28;20040;-60
2022/05/27 05:41:28;;;;;;;8.75;3.20;;;19.50;64.30;;;;;;5031683;28;20103;-60
2022/05/27 05:43:54;;;;;;;6.55;2.90;;;19.50;64.20;;;;;;5035322;28;20022;-59
2022/05/27 05:46:19;;;;;;;7.82;2.97;;;19.50;64.30;;;;;;5031136;28;20083;-59
2022/05/27 05:48:45;;;;;;;5.93;2.85;;;19.50;64.20;;;;;;5040167;28;20457;-60
2022/05/27 05:51:11;;;;;;;6.72;3.10;;;19.50;64.40;;;;;;5038230;28;20421;-60
2022/05/27 05:53:36;;;;;;;8.18;3.10;;;19.50;64.30;;;;;;5031725;28;20031;-60
2022/05/27 05:56:02;;;;;;;6.25;2.97;;;19.50;64.40;;;;;;5030302;28;20053;-60
2022/05/27 05:58:27;;;;;;;6.85;3.05;;;19.50;64.40;;;;;;5030756;28;20945;-60
2022/05/27 06:00:53;;;;;;;6.40;3.00;;;19.50;64.30;;;;;;5034007;28;20056;-60
2022/05/27 06:03:19;;;;;;;6.47;2.88;;;19.50;64.30;;;;;;5035257;28;20028;-60
2022/05/27 06:05:47;;;;;;;6.95;3.13;;;19.50;64.50;;;;;;5038408;28;20035;-60
2022/05/27 06:08:14;;;;;;;6.28;2.92;;;19.50;64.30;;;;;;5035745;28;20513;-60
2022/05/27 06:10:40;;;;;;;6.45;3.03;;;19.50;64.30;;;;;;5038952;28;20040;-60
2022/05/27 06:13:06;;;;;;;6.10;2.90;;;19.50;64.30;;;;;;5031313;28;20038;-60
2022/05/27 06:15:32;;;;;;;6.45;2.72;;;19.50;64.40;;;;;;5032644;28;20083;-60
2022/05/27 06:17:59;;;;;;;6.00;2.67;;;19.50;64.40;;;;;;5032910;28;20079;-60
2022/05/27 06:20:26;;;;;;;5.80;2.72;;;19.50;64.40;;;;;;5035385;28;20034;-60
2022/05/27 06:22:51;;;;;;;7.25;3.20;;;19.50;64.40;;;;;;5030004;28;20036;-60
2022/05/27 06:25:17;;;;;;;6.18;2.70;;;19.50;64.30;;;;;;5030211;28;20021;-60
2022/05/27 06:27:43;;;;;;;6.40;2.92;;;19.40;64.30;;;;;;5039030;28;20025;-60
2022/05/27 06:35:38;;;;;;;6.45;2.97;;;19.50;64.40;;;;;;5057202;28;20084;-60
2022/05/27 06:38:04;;;;;;;6.75;2.95;;;19.40;64.40;;;;;;5032911;28;20097;-60
2022/05/27 06:40:30;;;;;;;7.57;3.03;;;19.50;64.30;;;;;;5033799;28;20061;-61
2022/05/27 06:42:55;;;;;;;6.50;2.80;;;19.50;64.30;;;;;;5034713;28;20056;-60
2022/05/27 06:45:22;;;;;;;7.20;2.80;;;19.40;64.30;;;;;;5032891;28;20457;-60
2022/05/27 06:47:47;;;;;;;5.82;2.90;;;19.40;64.40;;;;;;5032645;28;20053;-60
2022/05/27 06:50:13;;;;;;;6.82;3.25;;;19.40;64.40;;;;;;5033367;28;20033;-60
2022/05/27 06:52:40;;;;;;;6.60;2.70;;;19.40;64.40;;;;;;5031047;28;20044;-60
2022/05/27 06:55:08;;;;;;;6.30;2.80;;;19.40;64.40;;;;;;5037756;28;20522;-60
2022/05/27 06:57:34;;;;;;;6.30;2.80;;;19.40;64.50;;;;;;5037630;28;20026;-60
2022/05/27 07:00:00;;;;;;;5.82;2.60;;;19.40;64.40;;;;;;5034240;28;20441;-60
2022/05/27 07:02:26;;;;;;;6.05;2.83;;;19.50;64.60;;;;;;5030784;28;20077;-60
2022/05/27 07:04:51;;;;;;;6.80;2.78;;;19.40;64.60;;;;;;5038593;28;20473;-60
2022/05/27 07:07:17;;;;;;;5.13;2.70;;;19.50;64.50;;;;;;5029058;28;20033;-60
2022/05/27 07:09:43;;;;;;;6.30;2.45;;;19.50;64.50;;;;;;5036203;28;20029;-61
2022/05/27 07:12:09;;;;;;;6.85;2.65;;;19.40;64.60;;;;;;5037935;28;20697;-61
2022/05/27 07:14:36;;;;;;;6.32;2.95;;;19.50;64.60;;;;;;5026352;28;20034;-61
2022/05/27 07:17:02;;;;;;;5.90;2.45;;;19.50;64.50;;;;;;5033632;28;20041;-61
2022/05/27 07:19:29;;;;;;;5.72;2.58;;;19.50;64.70;;;;;;5037316;28;20033;-61
2022/05/27 07:21:56;;;;;;;9.52;3.50;;;19.50;64.70;;;;;;5038775;28;20025;-61
2022/05/27 07:24:22;;;;;;;6.47;3.00;;;19.50;64.90;;;;;;5041827;28;20035;-61
2022/05/27 07:26:47;;;;;;;7.68;2.95;;;19.60;64.60;;;;;;5074204;28;20524;-60
2022/05/27 07:29:13;;;;;;;5.82;2.67;;;19.60;65.10;;;;;;5039437;28;20025;-61
2022/05/27 07:31:40;;;;;;;5.65;2.58;;;19.60;64.60;;;;;;5031885;28;20033;-61
2022/05/27 07:34:05;;;;;;;11.43;3.05;;;19.60;64.70;;;;;;5034590;28;20013;-67
2022/05/27 07:36:34;;;;;;;8.23;2.83;;;19.60;64.90;;;;;;5034641;28;20529;-66
2022/05/27 07:39:00;;;;;;;14.93;3.40;;;19.70;64.80;;;;;;5038757;28;20025;-63
2022/05/27 07:41:27;;;;;;;10.38;3.17;;;19.70;65.10;;;;;;5036551;28;20840;-66
2022/05/27 07:43:53;;;;;;;11.70;3.20;;;19.80;65.00;;;;;;5037672;28;20034;-62
2022/05/27 07:46:19;;;;;;;8.73;3.10;;;19.80;66.10;;;;;;5039613;28;20029;-62
2022/05/27 07:48:45;;;;;;;7.15;3.03;;;19.80;64.80;;;;;;5039249;28;20047;-62
2022/05/27 07:51:11;;;;;;;13.25;3.50;;;19.80;64.80;;;;;;5039108;28;20075;-62
2022/05/27 07:53:38;;;;;;;9.90;3.80;;;19.80;64.70;;;;;;5037113;28;20331;-63
2022/05/27 07:56:04;;;;;;;11.38;3.92;;;19.80;65.90;;;;;;5035395;28;20037;-62
2022/05/27 07:58:30;;;;;;;14.73;3.65;;;19.90;66.40;;;;;;5043121;28;20079;-62
2022/05/27 08:00:56;;;;;;;15.68;3.75;;;19.90;66.10;;;;;;5034387;28;20525;-63
2022/05/27 08:03:21;;;;;;;22.45;4.40;;;19.90;65.90;;;;;;5033427;28;20160;-63
2022/05/27 08:05:47;;;;;;;15.35;3.72;;;19.90;66.20;;;;;;5038169;28;20592;-62
2022/05/27 08:08:13;;;;;;;12.43;3.58;;;20.00;66.20;;;;;;5037167;28;20501;-65
2022/05/27 08:10:40;;;;;;;19.42;3.70;;;19.90;66.00;;;;;;5041584;28;20108;-63
2022/05/27 08:13:06;;;;;;;17.48;3.75;;;20.00;67.90;;;;;;5040750;28;20671;-63
2022/05/27 08:15:32;;;;;;;19.30;3.83;;;20.00;67.10;;;;;;5036115;28;20029;-63
2022/05/27 08:17:58;;;;;;;11.80;3.70;;;20.00;67.30;;;;;;5043547;28;20036;-64
2022/05/27 08:20:26;;;;;;;17.17;3.55;;;20.00;66.40;;;;;;5039156;28;20064;-63
2022/05/27 08:22:53;;;;;;;14.02;3.58;;;20.00;66.20;;;;;;5039953;28;20132;-63
2022/05/27 08:25:20;;;;;;;14.73;3.50;;;19.90;66.10;;;;;;5043396;28;20033;-63
2022/05/27 08:27:45;;;;;;;11.40;3.60;;;19.90;66.30;;;;;;5038534;28;20382;-64
2022/05/27 08:30:14;;;;;;;12.02;3.20;;;19.90;66.40;;;;;;5041919;28;20036;-63
2022/05/27 08:32:40;;;;;;;10.98;3.40;;;19.90;66.50;;;;;;5040686;28;20072;-63
2022/05/27 08:38:02;;;;;;;15.88;3.85;;;19.90;66.50;;;;;;5041024;28;20032;-63
2022/05/27 08:41:04;;;;;;;13.32;3.72;;;20.00;67.20;;;;;;5038699;28;20037;-63
2022/05/27 08:43:42;;;;;;;16.02;3.70;;;20.00;66.80;;;;;;5043817;28;20060;-63
2022/05/27 08:46:38;;;;;;;21.55;3.55;;;20.00;66.80;;;;;;5044419;28;20029;-61
2022/05/27 08:49:05;;;;;;;;;;;20.10;66.90;;;;;;5024724;28;20088;-57
2022/05/27 08:51:43;;;;;;;13.85;3.30;;;20.20;66.70;;;;;;5041097;28;19971;-55
2022/05/27 08:54:23;;;;;;;20.80;4.30;;;20.30;66.70;;;;;;5037801;28;20402;-57
2022/05/27 08:59:45;;;;;;;17.25;4.40;;;20.30;66.20;;;;;;5039008;28;20505;-56
2022/05/27 09:02:34;;;;;;;15.48;4.63;;;20.30;66.10;;;;;;5051102;28;20041;-56
2022/05/27 09:05:29;;;;;;;16.85;4.32;;;20.30;66.50;;;;;;5044667;28;20060;-56
2022/05/27 09:08:24;;;;;;;21.75;4.50;;;20.30;66.60;;;;;;5043769;28;20029;-56
2022/05/27 09:11:18;;;;;;;14.77;4.28;;;20.30;66.60;;;;;;5039673;28;20075;-56
2022/05/27 09:13:53;;;;;;;13.73;3.83;;;20.30;66.50;;;;;;5040985;28;20087;-56
2022/05/27 09:16:39;;;;;;;19.02;4.40;;;20.30;66.50;;;;;;5046752;28;20025;-56
2022/05/27 09:19:12;;;;;;;18.63;4.32;;;20.30;66.60;;;;;;5045930;28;20028;-56
2022/05/27 09:22:01;;;;;;;14.07;4.15;;;20.30;66.70;;;;;;5036408;28;20030;-56
2022/05/27 09:24:44;;;;;;;17.55;4.22;;;20.30;66.70;;;;;;5042132;28;20045;-56
2022/05/27 09:27:15;;;;;;;13.35;3.72;;;20.30;66.70;;;;;;5044583;28;20101;-54
2022/05/27 09:29:48;;;;;;;17.98;4.13;;;20.40;66.70;;;;;;5041188;28;20010;-56
2022/05/27 09:32:18;;;;;;;15.15;3.83;;;20.40;66.60;;;;;;5073295;28;20558;-56
2022/05/27 09:34:43;;;;;;;14.60;4.03;;;20.40;66.60;;;;;;5046136;28;20029;-56
2022/05/27 09:37:11;;;;;;;16.42;4.20;;;20.40;66.40;;;;;;5021966;28;20060;-56
2022/05/27 09:39:37;;;;;;;14.93;4.22;;;20.40;66.40;;;;;;5030106;28;20049;-56
2022/05/27 09:42:31;;;;;;;18.90;4.00;;;20.40;66.50;;;;;;5041895;28;20080;-56
2022/05/27 09:44:58;;;;;;;16.08;4.25;;;20.40;66.40;;;;;;5043553;28;20078;-56
2022/05/27 09:47:28;;;;;;;17.02;3.80;;;20.40;66.20;;;;;;5041231;28;20041;-56
2022/05/27 09:50:02;;;;;;;13.13;3.38;;;20.50;66.10;;;;;;5041999;28;20100;-56
2022/05/27 09:52:29;;;;;;;;;;;20.40;66.80;;;;;;5041807;28;20045;-57
2022/05/27 09:54:59;;;;;;;10.98;3.47;;;20.40;66.90;;;;;;5038809;28;19909;-56
2022/05/27 09:57:32;;;;;;;14.25;4.05;;;20.40;67.20;;;;;;5044320;28;20075;-56
2022/05/27 10:00:04;;;;;;;13.60;3.53;;;20.40;67.00;;;;;;5040058;28;20049;-56
2022/05/27 10:02:33;;;;;;;12.93;3.42;;;20.40;67.20;;;;;;5035345;28;20021;-57
2022/05/27 10:05:03;;;;;;;10.00;2.85;;;20.40;66.90;;;;;;5038214;28;20033;-56
2022/05/27 10:07:57;;;;;;;10.70;2.97;;;20.40;66.90;;;;;;5037787;28;20388;-56
2022/05/27 10:10:34;;;;;;;8.80;2.65;;;20.50;66.60;;;;;;5037266;28;20041;-56
2022/05/27 10:13:22;;;;;;;8.35;2.22;;;20.40;67.40;;;;;;5038142;28;20025;-56
2022/05/27 10:15:48;;;;;;;9.23;2.75;;;20.40;67.30;;;;;;5039686;28;20542;-56
2022/05/27 10:18:19;;;;;;;10.93;2.83;;;20.40;66.90;;;;;;5048095;28;20074;-56
2022/05/27 10:20:56;;;;;;;6.70;2.17;;;20.40;66.40;;;;;;5036286;28;20430;-57
2022/05/27 10:23:36;;;;;;;8.27;2.05;;;20.40;66.70;;;;;;5043694;28;20694;-56
2022/05/27 10:26:20;;;;;;;7.93;2.60;;;20.40;66.80;;;;;;5032384;28;20082;-56
2022/05/27 10:29:03;;;;;;;7.93;2.38;;;20.50;67.40;;;;;;5038543;28;20032;-56
2022/05/27 10:31:29;;;;;;;9.43;3.00;;;20.50;67.30;;;;;;5037907;28;20032;-56
2022/05/27 10:33:54;;;;;;;9.43;2.72;;;20.50;66.80;;;;;;5040295;28;20022;-57
2022/05/27 10:36:28;;;;;;;11.70;3.30;;;20.50;66.60;;;;;;5040803;28;20722;-56
2022/05/27 10:39:01;;;;;;;11.57;3.30;;;20.40;67.00;;;;;;5021852;28;20405;-56
2022/05/27 10:41:50;;;;;;;10.73;3.15;;;20.20;66.90;;;;;;5039146;28;20036;-56
2022/05/27 10:44:31;;;;;;;15.88;3.60;;;20.30;67.10;;;;;;5039504;28;20083;-56
2022/05/27 10:46:58;;;;;;;13.02;3.50;;;20.30;67.10;;;;;;5032908;28;21938;-56
2022/05/27 10:49:32;;;;;;;11.90;3.13;;;20.30;67.20;;;;;;5030735;28;20108;-56
2022/05/27 10:52:05;;;;;;;13.10;3.45;;;20.40;67.40;;;;;;5038416;28;20044;-56
2022/05/27 10:55:03;;;;;;;10.73;3.10;;;20.40;67.30;;;;;;5036148;28;20021;-56
2022/05/27 11:03:30;;;;;;;;;;;20.50;67.20;;;;;;5039021;28;20048;-56
2022/05/27 11:06:19;;;;;;;11.52;3.03;;;20.50;66.70;;;;;;5038353;28;19919;-56
2022/05/27 11:09:04;;;;;;;13.57;3.63;;;20.50;66.70;;;;;;5037245;28;20125;-56
2022/05/27 11:11:52;;;;;;;14.40;3.53;;;20.50;66.80;;;;;;5035748;28;20080;-57
2022/05/27 11:17:35;;;;;;;14.32;3.83;;;20.60;66.50;;;;;;5035240;28;20044;-56
2022/05/27 11:20:25;;;;;;;11.23;3.63;;;20.60;66.50;;;;;;5044728;28;20016;-56
2022/05/27 11:23:12;;;;;;;8.50;3.13;;;20.60;66.40;;;;;;5048711;28;20050;-56
2022/05/27 11:25:47;;;;;;;14.18;3.05;;;20.60;66.70;;;;;;5044373;28;20029;-56
2022/05/27 11:28:18;;;;;;;15.38;3.72;;;20.60;66.60;;;;;;5041433;28;20505;-56
2022/05/27 11:31:03;;;;;;;16.17;4.30;;;20.60;66.50;;;;;;5050721;28;20035;-56
2022/05/27 11:33:33;;;;;;;13.20;3.60;;;20.60;66.60;;;;;;5048705;28;20029;-56
2022/05/27 11:36:10;;;;;;;15.75;4.07;;;20.60;66.60;;;;;;5065975;28;20681;-56
2022/05/27 11:38:53;;;;;;;13.40;4.20;;;20.60;66.50;;;;;;5080728;28;20053;-56
2022/05/27 11:41:29;;;;;;;14.13;3.63;;;20.70;66.80;;;;;;5046699;28;20090;-56
2022/05/27 11:44:32;;;;;;;13.27;4.13;;;20.70;66.50;;;;;;5042424;28;20053;-57
2022/05/27 11:46:58;;;;;;;12.68;3.97;;;20.80;66.50;;;;;;5040287;28;20490;-56
2022/05/27 11:49:35;;;;;;;17.92;4.15;;;20.80;66.30;;;;;;5047741;28;20033;-57
2022/05/27 11:52:03;;;;;;;12.65;3.80;;;20.80;66.20;;;;;;5040958;28;20033;-56
2022/05/27 11:54:46;;;;;;;15.65;4.70;;;20.90;66.10;;;;;;5037758;28;20035;-56
2022/05/27 11:57:32;;;;;;;15.65;3.70;;;20.90;65.90;;;;;;5034101;28;20029;-56
2022/05/27 12:00:03;;;;;;;14.52;3.92;;;20.90;66.10;;;;;;5041287;28;20021;-56
2022/05/27 12:02:51;;;;;;;13.80;3.70;;;20.90;65.90;;;;;;5068219;28;20316;-56
2022/05/27 12:05:23;;;;;;;14.95;4.32;;;20.90;65.80;;;;;;5036731;28;20064;-56
2022/05/27 12:07:59;;;;;;;10.60;3.42;;;20.90;65.80;;;;;;5042327;28;20029;-57
2022/05/27 12:10:44;;;;;;;15.75;4.07;;;21.00;65.70;;;;;;5068235;28;21466;-56
2022/05/27 12:13:25;;;;;;;15.52;4.18;;;21.00;65.70;;;;;;5040874;28;20033;-57
2022/05/27 12:15:59;;;;;;;16.05;3.90;;;21.00;65.60;;;;;;5040643;28;20041;-56
2022/05/27 12:18:26;;;;;;;;;;;21.00;65.50;;;;;;5043780;28;20491;-56
2022/05/27 12:20:52;;;;;;;11.50;3.92;;;21.10;65.50;;;;;;5031652;28;19909;-56
2022/05/27 12:23:20;;;;;;;18.05;4.43;;;21.10;65.50;;;;;;5035955;28;20595;-56
2022/05/27 12:25:50;;;;;;;14.05;4.18;;;21.10;65.40;;;;;;5041036;28;20028;-56
2022/05/27 12:28:17;;;;;;;13.43;3.90;;;21.10;65.30;;;;;;5042034;28;20248;-56
2022/05/27 12:30:42;;;;;;;13.23;3.60;;;21.20;65.20;;;;;;5067877;28;20136;-56
2022/05/27 12:33:14;;;;;;;13.27;3.90;;;21.20;65.20;;;;;;5064010;28;20116;-56
2022/05/27 12:35:40;;;;;;;15.68;4.15;;;21.20;65.00;;;;;;5048047;28;20437;-56
2022/05/27 12:38:15;;;;;;;10.93;3.97;;;21.30;65.10;;;;;;5038532;28;20029;-56
2022/05/27 12:40:59;;;;;;;10.95;3.63;;;21.30;65.10;;;;;;5064871;28;20033;-56
2022/05/27 12:43:32;;;;;;;14.55;3.72;;;21.30;65.00;;;;;;5032701;28;20021;-56
2022/05/27 12:46:00;;;;;;;13.75;3.67;;;21.30;64.90;;;;;;5032777;28;20045;-56
2022/05/27 12:48:33;;;;;;;12.70;3.88;;;21.40;64.90;;;;;;5050455;28;20049;-56
2022/05/27 12:51:05;;;;;;;12.07;3.85;;;21.40;64.90;;;;;;5065097;28;22412;-56
2022/05/27 12:53:57;;;;;;;13.50;4.00;;;21.40;64.90;;;;;;5041063;28;20036;-56
2022/05/27 13:02:21;;;;;;;10.68;3.55;;;21.40;64.70;;;;;;5037381;28;20609;-57
2022/05/27 13:04:54;;;;;;;10.40;3.72;;;21.50;64.70;;;;;;5033694;28;20131;-57
2022/05/27 13:07:37;;;;;;;10.48;3.40;;;21.50;64.60;;;;;;5062754;28;20018;-56
2022/05/27 13:10:18;;;;;;;12.82;3.63;;;21.50;64.60;;;;;;5043381;28;20068;-56
2022/05/27 13:13:00;;;;;;;11.32;3.97;;;21.50;64.60;;;;;;5034687;28;20573;-56
2022/05/27 13:15:54;;;;;;;10.57;3.63;;;21.60;64.60;;;;;;5042842;28;20068;-56
2022/05/27 13:18:29;;;;;;;11.80;3.72;;;21.60;64.50;;;;;;5040749;28;20486;-56
2022/05/27 13:20:55;;;;;;;9.40;3.45;;;21.60;64.60;;;;;;5043012;28;20029;-56
2022/05/27 13:23:26;;;;;;;10.88;3.50;;;21.60;64.60;;;;;;5064327;28;20053;-56
2022/05/27 13:26:11;;;;;;;9.43;3.70;;;21.60;64.40;;;;;;5052915;28;20112;-57
2022/05/27 13:28:38;;;;;;;;;;;21.60;64.40;;;;;;5064024;28;20462;-57
2022/05/27 13:31:11;;;;;;;8.55;3.30;;;21.60;65.30;;;;;;5031809;28;20404;-56
2022/05/27 13:33:48;;;;;;;11.35;3.97;;;21.60;64.30;;;;;;5042376;28;20029;-57
2022/05/27 13:36:17;;;;;;;8.88;3.20;;;21.70;64.30;;;;;;5043572;28;20509;-56
2022/05/27 13:38:43;;;;;;;13.18;3.42;;;21.70;64.30;;;;;;5041714;28;20407;-56